Time;durP1;ratioP1;P1;durP2;ratioP2;P2;SDS_P1;SDS_P2;PMS_P1;PMS_P2;Temp;Humidity;BMP_temperature;BMP_pressure;BME280_temperature;BME280_humidity;BME280_pressure;Samples;Min_cycle;Max_cycle;Signal;HPM_P1;HPM_P2
2021/08/21 00:02:07;;;;;;;65.20;37.20;;;16.70;99.30;;;;;;4947632;28;20183;-74
2021/08/21 00:04:37;;;;;;;59.80;34.77;;;16.90;98.90;;;;;;4947270;29;20224;-72
2021/08/21 00:07:07;;;;;;;60.90;35.27;;;17.00;98.50;;;;;;4943666;28;20199;-72
2021/08/21 00:09:36;;;;;;;56.50;35.87;;;17.10;98.30;;;;;;4943323;28;20976;-69
2021/08/21 00:12:05;;;;;;;54.97;34.50;;;17.00;98.40;;;;;;4942796;28;20244;-66
2021/08/21 00:14:32;;;;;;;60.10;35.10;;;16.80;99.00;;;;;;4950246;28;20240;-68
2021/08/21 00:17:00;;;;;;;60.97;36.27;;;16.90;99.40;;;;;;4950006;28;20177;-67
2021/08/21 00:19:29;;;;;;;51.80;32.77;;;16.90;99.40;;;;;;4950632;28;20262;-74
2021/08/21 00:21:56;;;;;;;52.20;32.70;;;16.90;99.50;;;;;;4957725;29;20220;-65
2021/08/21 00:24:24;;;;;;;49.97;32.40;;;17.00;99.50;;;;;;4948106;28;20510;-69
2021/08/21 00:26:51;;;;;;;49.57;29.90;;;16.90;99.60;;;;;;4947388;28;20285;-68
2021/08/21 00:29:19;;;;;;;43.57;28.70;;;17.10;99.60;;;;;;4956154;28;20189;-64
2021/08/21 00:31:46;;;;;;;44.93;27.47;;;17.20;99.10;;;;;;4951575;29;20175;-74
2021/08/21 00:34:14;;;;;;;49.00;27.20;;;17.20;99.40;;;;;;4939956;28;20218;-70
2021/08/21 00:36:41;;;;;;;47.83;26.23;;;17.40;99.00;;;;;;4950470;28;20177;-72
2021/08/21 00:39:08;;;;;;;42.53;25.63;;;17.40;99.20;;;;;;4955655;28;20235;-70
2021/08/21 00:41:36;;;;;;;46.73;24.13;;;17.50;99.10;;;;;;4940525;28;20656;-72
2021/08/21 00:44:07;;;;;;;37.77;22.47;;;17.50;99.10;;;;;;4942774;28;20199;-71
2021/08/21 00:46:53;;;;;;;35.30;22.00;;;17.50;98.90;;;;;;4955192;28;20196;-73
2021/08/21 00:49:20;;;;;;;36.83;21.03;;;17.70;99.30;;;;;;4946336;29;20186;-68
2021/08/21 00:51:47;;;;;;;33.90;22.27;;;17.80;98.90;;;;;;4954640;28;20182;-70
2021/08/21 00:54:15;;;;;;;35.80;22.57;;;17.90;98.70;;;;;;4938031;29;20694;-70
2021/08/21 00:56:42;;;;;;;37.30;22.73;;;18.00;98.60;;;;;;4947898;28;20195;-69
2021/08/21 00:59:12;;;;;;;37.10;23.00;;;18.10;98.40;;;;;;4948803;28;20583;-70
2021/08/21 01:01:40;;;;;;;30.93;19.13;;;18.20;98.30;;;;;;4956801;28;20195;-71
2021/08/21 01:04:08;;;;;;;29.77;16.50;;;18.30;98.10;;;;;;4947468;28;20193;-66
2021/08/21 01:06:35;;;;;;;28.43;16.10;;;18.30;98.10;;;;;;4951663;28;20546;-67
2021/08/21 01:09:03;;;;;;;27.73;15.07;;;18.40;98.10;;;;;;4945989;28;20186;-65
2021/08/21 01:11:31;;;;;;;21.10;12.23;;;18.40;98.00;;;;;;4944179;28;20222;-65
2021/08/21 01:13:59;;;;;;;18.30;12.00;;;18.20;98.00;;;;;;4944708;28;20690;-67
2021/08/21 01:16:27;;;;;;;19.23;11.53;;;18.10;98.10;;;;;;4951815;28;20188;-65
2021/08/21 01:18:55;;;;;;;22.47;12.03;;;18.00;98.40;;;;;;4939190;28;20179;-69
2021/08/21 01:21:23;;;;;;;23.87;12.10;;;17.90;98.60;;;;;;4951757;29;20213;-72
2021/08/21 01:23:51;;;;;;;17.73;11.00;;;18.00;98.80;;;;;;4951339;28;20182;-67
2021/08/21 01:26:18;;;;;;;19.03;10.50;;;18.10;98.60;;;;;;4937626;28;20642;-65
2021/08/21 01:28:46;;;;;;;14.83;9.83;;;18.20;98.40;;;;;;4946355;29;20243;-66
2021/08/21 01:31:13;;;;;;;16.77;9.20;;;18.20;98.50;;;;;;4952790;28;20188;-76
2021/08/21 01:33:41;;;;;;;27.90;9.20;;;18.30;98.20;;;;;;4966188;28;20206;-65
2021/08/21 01:36:08;;;;;;;15.13;8.57;;;18.30;98.00;;;;;;4955646;28;20273;-65
2021/08/21 01:38:35;;;;;;;16.40;8.43;;;18.30;98.00;;;;;;4955909;29;20697;-66
2021/08/21 01:41:03;;;;;;;19.77;8.30;;;18.40;98.30;;;;;;4952867;28;20186;-72
2021/08/21 01:43:31;;;;;;;10.00;5.43;;;18.50;98.40;;;;;;4954379;28;20182;-66
2021/08/21 01:45:58;;;;;;;7.63;5.23;;;18.70;97.20;;;;;;4956197;28;20182;-70
2021/08/21 01:48:25;;;;;;;14.30;7.67;;;18.80;97.20;;;;;;4955832;28;20183;-68
2021/08/21 01:50:53;;;;;;;17.03;7.57;;;19.00;97.70;;;;;;4956124;29;20197;-67
2021/08/21 01:53:20;;;;;;;12.70;7.03;;;19.20;97.50;;;;;;4955741;28;20206;-67
2021/08/21 01:55:49;;;;;;;11.17;6.63;;;19.50;97.10;;;;;;4943865;28;20234;-66
2021/08/21 01:58:22;;;;;;;12.47;6.33;;;19.70;96.50;;;;;;4950739;28;20179;-67
2021/08/21 02:00:50;;;;;;;8.40;5.73;;;19.80;96.40;;;;;;4951319;28;20256;-71
2021/08/21 02:03:18;;;;;;;10.90;5.20;;;19.90;95.70;;;;;;4934654;28;20247;-77
2021/08/21 02:05:45;;;;;;;8.33;5.40;;;20.00;95.80;;;;;;4955569;29;20211;-64
2021/08/21 02:08:13;;;;;;;9.03;4.87;;;20.20;95.60;;;;;;4955327;28;20234;-70
2021/08/21 02:10:40;;;;;;;8.30;4.07;;;20.40;95.40;;;;;;4951558;28;20174;-66
2021/08/21 02:13:09;;;;;;;7.90;4.10;;;20.70;94.70;;;;;;4945099;28;20184;-67
2021/08/21 02:15:36;;;;;;;8.47;4.03;;;20.70;94.80;;;;;;4955251;28;20565;-67
2021/08/21 02:18:03;;;;;;;6.73;3.83;;;20.90;94.20;;;;;;4955393;28;20214;-64
2021/08/21 02:20:31;;;;;;;10.23;3.73;;;20.90;94.00;;;;;;4951203;28;20574;-78
2021/08/21 02:22:58;;;;;;;7.97;3.23;;;21.20;93.50;;;;;;4943056;28;20179;-64
2021/08/21 02:25:26;;;;;;;7.23;3.60;;;21.60;93.00;;;;;;4955456;28;20171;-78
2021/08/21 02:27:58;;;;;;;8.03;3.40;;;21.70;92.60;;;;;;4954967;28;20673;-65
2021/08/21 02:30:26;;;;;;;5.93;3.90;;;21.80;92.40;;;;;;4952703;28;20187;-65
2021/08/21 02:32:53;;;;;;;10.80;4.57;;;21.60;92.80;;;;;;4947285;29;20279;-75
2021/08/21 02:35:21;;;;;;;8.17;4.43;;;22.20;92.60;;;;;;4950573;28;20222;-66
2021/08/21 02:37:48;;;;;;;10.03;4.27;;;22.20;92.00;;;;;;4943545;28;20187;-66
2021/08/21 02:40:16;;;;;;;12.80;4.47;;;22.40;91.70;;;;;;4953312;28;20278;-66
2021/08/21 02:42:43;;;;;;;8.00;5.03;;;22.40;91.80;;;;;;4947733;28;20184;-65
2021/08/21 02:45:11;;;;;;;10.33;5.67;;;22.10;91.70;;;;;;4952038;28;20190;-66
2021/08/21 02:47:38;;;;;;;11.53;5.67;;;22.00;92.00;;;;;;4952584;29;20654;-65
2021/08/21 02:50:06;;;;;;;11.20;6.30;;;22.20;91.50;;;;;;4951698;28;20242;-78
2021/08/21 02:52:34;;;;;;;9.63;6.40;;;22.60;91.10;;;;;;4953081;28;20234;-65
2021/08/21 02:55:01;;;;;;;8.10;5.77;;;22.60;89.40;;;;;;4954775;28;20606;-67
2021/08/21 02:57:28;;;;;;;10.00;6.77;;;22.80;90.10;;;;;;4952182;28;20183;-71
2021/08/21 02:59:56;;;;;;;14.63;7.90;;;22.90;88.10;;;;;;4952770;28;20192;-67
2021/08/21 03:02:23;;;;;;;17.17;7.67;;;22.80;87.00;;;;;;4954728;28;20608;-66
2021/08/21 03:04:52;;;;;;;17.53;12.80;;;22.80;88.10;;;;;;4954513;28;20179;-75
2021/08/21 03:07:19;;;;;;;26.50;18.93;;;22.90;87.20;;;;;;4954639;28;20201;-66
2021/08/21 03:09:47;;;;;;;26.00;19.47;;;23.20;85.50;;;;;;4955095;29;20187;-69
2021/08/21 03:12:14;;;;;;;27.33;18.03;;;23.10;85.60;;;;;;4953946;28;20179;-69
2021/08/21 03:14:41;;;;;;;30.40;18.47;;;23.50;86.20;;;;;;4954830;29;20764;-77
2021/08/21 03:17:11;;;;;;;30.87;18.73;;;23.10;86.40;;;;;;4954529;28;20210;-67
2021/08/21 03:19:38;;;;;;;28.80;18.93;;;22.90;87.20;;;;;;4954766;28;20180;-74
2021/08/21 03:22:06;;;;;;;37.07;23.83;;;23.20;87.60;;;;;;4954571;28;20191;-71
2021/08/21 03:24:33;;;;;;;36.80;26.23;;;23.80;86.50;;;;;;4954423;28;20538;-72
2021/08/21 03:27:00;;;;;;;43.23;33.00;;;23.60;86.00;;;;;;4954280;28;20569;-69
2021/08/21 03:29:28;;;;;;;51.20;36.07;;;23.80;85.00;;;;;;4955095;28;20199;-78
2021/08/21 03:31:55;;;;;;;50.67;35.53;;;23.50;85.70;;;;;;4954915;28;20187;-67
2021/08/21 03:34:24;;;;;;;59.53;38.60;;;23.50;85.60;;;;;;4953735;29;20219;-66
2021/08/21 03:36:53;;;;;;;55.80;38.40;;;23.50;86.30;;;;;;4953936;28;20183;-68
2021/08/21 03:39:20;;;;;;;61.70;41.50;;;23.40;85.70;;;;;;4935388;29;20622;-68
2021/08/21 03:41:48;;;;;;;63.53;46.43;;;23.10;87.10;;;;;;4953803;28;20230;-68
2021/08/21 03:44:16;;;;;;;59.53;40.80;;;23.60;85.80;;;;;;4954337;28;20598;-65
2021/08/21 03:46:43;;;;;;;61.30;43.67;;;23.40;86.10;;;;;;4954676;28;20205;-66
2021/08/21 03:49:10;;;;;;;57.60;40.80;;;23.50;85.70;;;;;;4952614;28;20179;-69
2021/08/21 03:51:38;;;;;;;41.60;32.40;;;23.70;85.30;;;;;;4958547;29;20645;-83
2021/08/21 03:54:05;;;;;;;43.90;30.73;;;23.90;84.70;;;;;;4958066;28;20230;-79
2021/08/21 03:56:32;;;;;;;57.47;41.70;;;24.30;83.50;;;;;;4958316;28;20187;-79
2021/08/21 03:59:00;;;;;;;52.37;38.07;;;24.00;83.10;;;;;;4958743;28;20188;-79
2021/08/21 04:01:27;;;;;;;68.63;50.00;;;24.00;83.30;;;;;;4958927;29;20179;-79
2021/08/21 04:03:54;;;;;;;69.27;49.67;;;24.00;82.80;;;;;;4957206;28;20519;-75
2021/08/21 04:06:22;;;;;;;75.70;50.77;;;24.70;81.50;;;;;;4942785;28;20184;-78
2021/08/21 04:08:49;;;;;;;64.73;49.63;;;24.50;81.10;;;;;;4956591;28;20266;-71
2021/08/21 04:11:17;;;;;;;60.40;44.20;;;24.80;81.30;;;;;;4956817;28;20179;-67
2021/08/21 04:13:44;;;;;;;58.73;42.50;;;24.90;81.00;;;;;;4957622;28;20191;-73
2021/08/21 04:16:12;;;;;;;60.23;41.07;;;24.80;81.40;;;;;;4957779;29;20636;-67
2021/08/21 04:18:39;;;;;;;60.27;41.67;;;25.10;80.80;;;;;;4957477;28;20275;-68
2021/08/21 04:21:07;;;;;;;62.43;43.60;;;24.90;80.70;;;;;;4957792;28;20223;-66
2021/08/21 04:23:34;;;;;;;60.10;43.20;;;25.50;80.00;;;;;;4951299;28;20190;-70
2021/08/21 04:26:01;;;;;;;47.27;34.57;;;25.70;79.00;;;;;;4947300;28;20234;-66
2021/08/21 04:28:30;;;;;;;22.73;17.60;;;26.10;77.90;;;;;;4952762;28;20655;-70
2021/08/21 04:30:58;;;;;;;22.73;14.97;;;27.10;73.90;;;;;;4945883;28;20187;-66
2021/08/21 04:33:26;;;;;;;17.67;12.80;;;27.20;72.50;;;;;;4947650;29;20184;-65
2021/08/21 04:35:54;;;;;;;12.00;8.13;;;27.30;71.70;;;;;;4938248;29;20206;-66
2021/08/21 04:38:22;;;;;;;8.47;6.27;;;26.90;71.40;;;;;;4957279;28;20219;-66
2021/08/21 04:40:49;;;;;;;9.70;6.50;;;27.20;70.30;;;;;;4954593;28;20187;-68
2021/08/21 04:43:19;;;;;;;9.97;5.30;;;27.20;69.90;;;;;;4940311;29;20175;-68
2021/08/21 04:45:47;;;;;;;8.03;6.17;;;26.90;70.80;;;;;;4947659;28;20658;-78
2021/08/21 04:48:14;;;;;;;9.00;5.80;;;27.20;70.20;;;;;;4958236;28;20175;-73
2021/08/21 04:50:41;;;;;;;7.70;5.00;;;27.20;70.50;;;;;;4958343;28;20193;-80
2021/08/21 04:53:09;;;;;;;5.47;4.10;;;27.40;70.20;;;;;;4957825;28;20204;-81
2021/08/21 04:55:36;;;;;;;4.30;3.43;;;27.80;69.10;;;;;;4939764;29;20624;-82
2021/08/21 04:58:04;;;;;;;4.83;3.53;;;27.90;67.90;;;;;;4957464;29;20163;-80
2021/08/21 05:00:33;;;;;;;7.10;4.67;;;27.70;67.90;;;;;;4956876;28;20194;-78
2021/08/21 05:03:00;;;;;;;8.13;5.00;;;27.50;67.50;;;;;;4954738;28;20186;-80
2021/08/21 05:05:28;;;;;;;9.63;5.63;;;27.20;68.20;;;;;;4957261;28;20531;-77
2021/08/21 05:07:56;;;;;;;7.20;4.97;;;27.20;68.60;;;;;;4957279;28;20191;-75
2021/08/21 05:10:23;;;;;;;7.23;4.80;;;27.50;68.10;;;;;;4956441;28;20215;-75
2021/08/21 05:12:50;;;;;;;7.47;5.37;;;27.50;67.90;;;;;;4956710;28;20205;-76
2021/08/21 05:15:18;;;;;;;13.20;7.43;;;27.70;68.10;;;;;;4955025;29;20216;-77
2021/08/21 05:17:48;;;;;;;11.70;7.50;;;28.10;66.80;;;;;;4955255;28;20194;-78
2021/08/21 05:20:26;;;;;;;12.87;7.93;;;28.30;66.10;;;;;;4954263;28;20196;-79
2021/08/21 05:23:26;;;;;;;10.43;7.73;;;28.00;65.90;;;;;;4952375;28;20183;-69
2021/08/21 05:25:48;;;;;;;10.97;8.03;;;28.40;66.40;;;;;;4950576;28;20662;-74
2021/08/21 05:28:17;;;;;;;12.33;7.67;;;28.50;65.60;;;;;;4957685;29;20203;-78
2021/08/21 05:30:45;;;;;;;11.67;8.07;;;29.00;64.80;;;;;;4951914;28;20242;-66
2021/08/21 05:33:15;;;;;;;16.17;9.53;;;28.30;65.70;;;;;;4957177;28;20569;-81
2021/08/21 05:35:43;;;;;;;18.03;9.67;;;27.80;66.50;;;;;;4957028;29;20226;-76
2021/08/21 05:38:11;;;;;;;15.30;11.20;;;27.70;66.60;;;;;;4955554;28;20259;-66
2021/08/21 05:40:39;;;;;;;20.37;12.20;;;27.70;66.80;;;;;;4956032;28;20191;-70
2021/08/21 05:43:08;;;;;;;15.30;11.37;;;28.10;66.10;;;;;;4957522;29;20202;-73
2021/08/21 05:45:36;;;;;;;17.97;12.00;;;28.30;66.00;;;;;;4950131;28;20184;-70
2021/08/21 05:48:04;;;;;;;17.47;11.70;;;28.20;65.10;;;;;;4949589;28;20543;-78
2021/08/21 05:50:31;;;;;;;14.27;11.17;;;28.60;65.10;;;;;;4947770;28;20529;-76
2021/08/21 05:52:59;;;;;;;18.03;11.83;;;28.70;64.50;;;;;;4939163;28;20813;-75
2021/08/21 05:55:26;;;;;;;18.27;11.70;;;28.70;64.30;;;;;;4942794;28;20254;-79
2021/08/21 05:57:53;;;;;;;15.37;11.53;;;29.00;64.60;;;;;;4947577;28;20195;-75
2021/08/21 06:00:21;;;;;;;17.47;11.57;;;29.10;63.80;;;;;;4955523;28;20175;-67
2021/08/21 06:02:48;;;;;;;17.67;11.77;;;29.10;64.00;;;;;;4947591;28;20263;-77
2021/08/21 06:05:16;;;;;;;18.50;12.23;;;29.30;64.00;;;;;;4951125;28;20278;-66
2021/08/21 06:07:43;;;;;;;17.77;12.00;;;29.00;63.40;;;;;;4954578;28;20206;-78
2021/08/21 06:10:11;;;;;;;17.97;11.67;;;28.80;64.30;;;;;;4952249;28;20187;-68
2021/08/21 06:12:38;;;;;;;21.35;13.10;;;28.60;64.30;;;;;;4952691;28;20440;-82
2021/08/21 06:15:06;;;;;;;17.80;12.10;;;28.20;64.80;;;;;;4951980;28;20689;-79
2021/08/21 06:17:33;;;;;;;16.10;11.73;;;27.20;65.90;;;;;;4955764;28;20270;-75
2021/08/21 06:20:03;;;;;;;16.67;11.73;;;27.10;66.30;;;;;;4954569;28;20508;-80
2021/08/21 06:22:30;;;;;;;17.43;11.53;;;27.20;65.70;;;;;;4951284;28;20179;-79
2021/08/21 06:24:58;;;;;;;27.00;11.40;;;26.90;66.40;;;;;;4945823;28;20187;-81
2021/08/21 06:27:25;;;;;;;21.70;11.63;;;27.10;66.30;;;;;;4950109;28;20188;-75
2021/08/21 06:29:52;;;;;;;19.43;11.90;;;26.70;66.90;;;;;;4952076;28;20246;-81
2021/08/21 06:32:20;;;;;;;17.93;12.00;;;26.00;67.90;;;;;;4951936;28;20225;-70
2021/08/21 06:34:47;;;;;;;18.53;11.83;;;25.50;69.70;;;;;;4950733;28;20233;-71
2021/08/21 06:37:14;;;;;;;18.37;11.20;;;25.20;69.90;;;;;;4954391;28;20175;-76
2021/08/21 06:39:42;;;;;;;16.83;10.83;;;25.00;70.40;;;;;;4949822;28;20223;-79
2021/08/21 06:42:09;;;;;;;19.93;10.03;;;24.50;73.20;;;;;;4955846;28;20187;-73
2021/08/21 06:44:36;;;;;;;16.37;9.83;;;24.20;75.10;;;;;;4963711;28;20721;-80
2021/08/21 06:47:04;;;;;;;13.83;8.93;;;24.00;76.10;;;;;;4974237;28;20178;-73
2021/08/21 06:49:31;;;;;;;12.43;8.30;;;23.70;77.70;;;;;;4974017;28;20175;-73
2021/08/21 06:51:58;;;;;;;14.33;7.47;;;23.50;78.60;;;;;;4960931;28;20195;-73
2021/08/21 06:54:26;;;;;;;12.53;7.23;;;23.10;79.60;;;;;;4968302;28;20246;-79
2021/08/21 06:56:53;;;;;;;11.93;7.20;;;23.10;80.40;;;;;;4959571;28;21102;-67
2021/08/21 06:59:21;;;;;;;10.17;6.20;;;23.20;80.90;;;;;;4973966;28;20182;-77
2021/08/21 07:01:48;;;;;;;13.33;6.83;;;23.10;82.00;;;;;;4949633;28;20184;-65
2021/08/21 07:04:16;;;;;;;7.83;4.20;;;22.80;83.60;;;;;;4958182;28;20178;-69
2021/08/21 07:06:43;;;;;;;13.30;4.40;;;22.60;85.20;;;;;;4959757;28;20188;-70
2021/08/21 07:09:11;;;;;;;8.80;5.40;;;22.30;87.40;;;;;;4970878;28;20646;-69
2021/08/21 07:11:38;;;;;;;7.93;4.03;;;22.00;90.00;;;;;;4942987;28;20207;-66
2021/08/21 07:14:05;;;;;;;14.33;4.67;;;21.50;91.60;;;;;;4970105;28;20202;-70
2021/08/21 07:16:33;;;;;;;14.73;4.33;;;21.30;92.50;;;;;;4959474;28;20221;-68
2021/08/21 07:19:00;;;;;;;29.97;8.03;;;21.10;93.40;;;;;;4961965;28;20202;-71
2021/08/21 07:21:28;;;;;;;26.70;6.37;;;20.90;94.20;;;;;;4949948;28;20566;-71
2021/08/21 07:23:55;;;;;;;25.17;6.50;;;20.80;95.00;;;;;;4945583;29;20211;-76
2021/08/21 07:26:22;;;;;;;17.67;5.87;;;20.70;95.90;;;;;;4952259;29;20186;-79
2021/08/21 07:28:50;;;;;;;9.97;4.60;;;20.40;96.60;;;;;;4951646;28;20639;-71
2021/08/21 07:31:18;;;;;;;9.20;4.63;;;20.40;97.40;;;;;;4954559;28;20263;-71
2021/08/21 07:33:45;;;;;;;9.57;6.30;;;20.30;98.00;;;;;;4952898;28;20270;-66
2021/08/21 07:36:12;;;;;;;11.47;6.87;;;20.10;98.60;;;;;;4939366;28;20194;-72
2021/08/21 07:38:40;;;;;;;17.00;9.03;;;20.00;99.00;;;;;;4947323;29;20235;-73
2021/08/21 07:41:07;;;;;;;20.50;11.17;;;19.90;99.50;;;;;;4952674;28;20184;-67
2021/08/21 07:43:34;;;;;;;11.23;5.60;;;19.80;99.90;;;;;;4946655;29;20191;-75
2021/08/21 07:46:02;;;;;;;9.77;4.57;;;19.70;99.90;;;;;;4948462;28;20525;-69
2021/08/21 07:48:29;;;;;;;10.30;4.37;;;19.70;99.90;;;;;;4951720;28;20179;-67
2021/08/21 07:50:56;;;;;;;8.63;3.77;;;19.70;99.90;;;;;;4953314;29;20741;-68
2021/08/21 07:53:24;;;;;;;9.73;3.47;;;19.70;99.90;;;;;;4951680;28;20191;-76
2021/08/21 07:55:51;;;;;;;7.87;3.70;;;19.70;99.90;;;;;;4951810;29;20227;-70
2021/08/21 07:58:18;;;;;;;8.63;3.07;;;19.60;99.90;;;;;;4953844;29;20200;-69
2021/08/21 08:00:46;;;;;;;7.97;3.57;;;19.60;99.90;;;;;;4952240;29;20248;-64
2021/08/21 08:03:14;;;;;;;15.20;5.33;;;19.60;99.90;;;;;;4952157;29;20191;-68
2021/08/21 08:05:46;;;;;;;8.57;3.30;;;19.50;99.90;;;;;;4953687;28;20202;-72
2021/08/21 08:08:13;;;;;;;8.00;3.27;;;19.50;99.90;;;;;;4944680;29;20190;-65
2021/08/21 08:10:40;;;;;;;8.50;4.67;;;19.40;99.90;;;;;;4940658;28;20193;-65
2021/08/21 08:13:08;;;;;;;6.73;3.30;;;19.30;99.90;;;;;;4951555;28;20645;-71
2021/08/21 08:15:35;;;;;;;9.40;3.73;;;19.40;99.90;;;;;;4951865;29;20238;-69
2021/08/21 08:18:03;;;;;;;9.63;4.27;;;19.30;99.90;;;;;;4950457;29;20194;-77
2021/08/21 08:20:31;;;;;;;9.17;4.23;;;19.30;99.90;;;;;;4954118;28;20295;-71
2021/08/21 08:22:58;;;;;;;7.63;3.60;;;19.20;99.90;;;;;;4965284;28;20209;-71
2021/08/21 08:25:26;;;;;;;10.23;3.63;;;19.10;99.90;;;;;;4956146;28;20187;-65
2021/08/21 08:27:53;;;;;;;7.97;3.47;;;19.10;99.90;;;;;;4937604;28;20192;-65
2021/08/21 08:30:20;;;;;;;7.73;3.43;;;19.10;99.90;;;;;;4973327;28;20175;-67
2021/08/21 08:32:48;;;;;;;8.90;3.10;;;19.00;99.90;;;;;;4970806;28;20465;-65
2021/08/21 08:35:15;;;;;;;5.00;3.00;;;19.00;99.90;;;;;;4963466;28;20227;-69
2021/08/21 08:37:43;;;;;;;7.63;2.70;;;19.00;99.90;;;;;;4957239;28;20554;-67
2021/08/21 08:40:13;;;;;;;8.27;2.63;;;18.90;99.90;;;;;;4950548;28;20202;-66
2021/08/21 08:42:42;;;;;;;4.73;2.70;;;18.70;99.90;;;;;;4948635;28;20219;-69
2021/08/21 08:45:11;;;;;;;5.60;2.90;;;18.70;99.90;;;;;;4955533;28;20242;-77
2021/08/21 08:47:39;;;;;;;6.87;2.80;;;18.60;99.90;;;;;;4955081;28;20190;-65
2021/08/21 08:50:09;;;;;;;8.37;3.13;;;18.50;99.90;;;;;;4946474;28;20198;-78
2021/08/21 08:52:37;;;;;;;5.57;3.17;;;18.50;99.90;;;;;;4956216;28;20258;-65
2021/08/21 08:55:09;;;;;;;8.13;4.67;;;18.50;99.90;;;;;;4955581;28;20258;-71
2021/08/21 08:57:47;;;;;;;9.23;5.80;;;18.40;99.90;;;;;;4956651;28;20604;-73
2021/08/21 09:00:21;;;;;;;9.83;5.60;;;18.30;99.90;;;;;;4953706;28;20553;-69
2021/08/21 09:02:55;;;;;;;12.73;4.70;;;18.30;99.90;;;;;;4948249;28;20224;-70
2021/08/21 09:05:26;;;;;;;7.70;4.70;;;18.20;99.90;;;;;;4951163;29;20177;-67
2021/08/21 09:07:54;;;;;;;10.90;5.27;;;18.20;99.90;;;;;;4952222;28;20184;-65
2021/08/21 09:10:34;;;;;;;8.10;4.70;;;18.10;99.90;;;;;;4943079;28;20645;-72
2021/08/21 09:13:04;;;;;;;8.23;4.50;;;18.00;99.90;;;;;;4947952;28;20230;-75
2021/08/21 09:15:34;;;;;;;11.50;5.90;;;18.00;99.90;;;;;;4956798;28;20219;-76
2021/08/21 09:18:06;;;;;;;9.07;5.00;;;18.00;99.90;;;;;;4956673;28;20274;-78
2021/08/21 09:20:35;;;;;;;10.23;4.30;;;17.90;99.90;;;;;;4956509;28;20642;-76
2021/08/21 09:23:16;;;;;;;11.70;5.67;;;17.90;99.90;;;;;;4949193;28;20230;-78
2021/08/21 09:25:44;;;;;;;15.37;5.13;;;17.90;99.90;;;;;;4946883;28;20223;-71
2021/08/21 09:28:27;;;;;;;11.53;4.70;;;17.80;99.90;;;;;;4947141;28;20274;-78
2021/08/21 09:31:21;;;;;;;7.87;4.57;;;17.80;99.90;;;;;;4950032;28;20183;-73
2021/08/21 09:33:53;;;;;;;9.87;5.43;;;17.70;99.90;;;;;;4943311;28;20195;-75
2021/08/21 09:36:45;;;;;;;9.13;4.27;;;17.70;99.90;;;;;;4946217;29;20229;-77
2021/08/21 09:39:16;;;;;;;8.77;5.93;;;17.80;99.90;;;;;;4948596;28;20242;-73
2021/08/21 09:41:58;;;;;;;15.90;9.93;;;17.90;99.90;;;;;;4949816;28;20712;-71
2021/08/21 09:44:40;;;;;;;15.23;10.90;;;17.80;99.90;;;;;;4944788;29;20242;-78
2021/08/21 09:47:18;;;;;;;20.60;11.27;;;17.80;99.90;;;;;;4954589;28;20190;-78
2021/08/21 09:49:46;;;;;;;16.07;9.37;;;17.70;99.90;;;;;;4956308;28;20193;-78
2021/08/21 09:52:15;;;;;;;15.23;9.47;;;17.60;99.90;;;;;;4951756;28;20646;-74
2021/08/21 09:54:45;;;;;;;15.83;8.07;;;17.50;99.90;;;;;;4955625;29;20214;-74
2021/08/21 09:57:21;;;;;;;16.13;8.80;;;17.50;99.90;;;;;;4954863;28;20187;-72
2021/08/21 09:59:56;;;;;;;16.03;8.17;;;17.30;99.90;;;;;;4955952;29;20183;-76
2021/08/21 10:02:24;;;;;;;15.00;9.67;;;17.30;99.90;;;;;;4943815;29;20599;-66
2021/08/21 10:04:52;;;;;;;14.03;9.27;;;17.30;99.90;;;;;;4956030;29;20190;-69
2021/08/21 10:07:22;;;;;;;14.73;8.07;;;17.20;99.90;;;;;;4955639;29;20194;-64
2021/08/21 10:09:52;;;;;;;14.17;8.93;;;17.20;99.90;;;;;;4954863;28;20186;-66
2021/08/21 10:12:22;;;;;;;14.40;7.60;;;17.20;99.90;;;;;;4950033;28;20201;-65
2021/08/21 10:14:50;;;;;;;15.20;8.63;;;17.10;99.90;;;;;;4954613;28;20234;-67
2021/08/21 10:17:19;;;;;;;14.73;9.10;;;17.00;99.90;;;;;;4948223;28;20186;-66
2021/08/21 10:19:50;;;;;;;23.93;10.67;;;16.90;99.90;;;;;;4955444;28;20237;-65
2021/08/21 10:22:20;;;;;;;20.47;12.47;;;16.90;99.90;;;;;;4955628;29;20642;-65
2021/08/21 10:24:48;;;;;;;21.83;12.20;;;16.90;99.90;;;;;;4953206;29;20589;-67
2021/08/21 10:27:24;;;;;;;23.20;14.20;;;16.80;99.90;;;;;;4955414;29;20191;-65
2021/08/21 10:30:06;;;;;;;31.50;19.07;;;16.70;99.90;;;;;;4951061;29;20224;-68
2021/08/21 10:32:41;;;;;;;30.47;19.50;;;16.70;99.90;;;;;;4951182;29;20266;-64
2021/08/21 10:35:10;;;;;;;35.37;20.40;;;16.60;99.90;;;;;;4953407;28;20219;-67
2021/08/21 10:37:46;;;;;;;32.80;21.00;;;16.60;99.90;;;;;;4955013;28;20179;-67
2021/08/21 10:40:28;;;;;;;30.27;21.47;;;16.60;99.90;;;;;;4954788;28;20598;-66
2021/08/21 10:43:03;;;;;;;31.17;19.57;;;16.50;99.90;;;;;;4955309;29;20188;-66
2021/08/21 10:45:47;;;;;;;29.30;19.10;;;16.50;99.90;;;;;;4948847;28;20196;-68
2021/08/21 10:48:15;;;;;;;27.97;19.43;;;16.50;99.90;;;;;;4942263;29;20530;-66
2021/08/21 10:50:47;;;;;;;31.77;19.70;;;16.30;99.90;;;;;;4950606;28;20192;-68
2021/08/21 10:53:28;;;;;;;33.83;22.13;;;16.30;99.90;;;;;;4948611;28;20198;-72
2021/08/21 10:55:57;;;;;;;36.17;21.17;;;16.20;99.90;;;;;;4951850;28;20234;-69
2021/08/21 10:58:29;;;;;;;36.23;22.53;;;16.20;99.90;;;;;;4954661;28;20185;-65
2021/08/21 11:01:04;;;;;;;28.57;18.30;;;16.20;99.90;;;;;;4944326;29;20191;-65
2021/08/21 11:03:32;;;;;;;26.77;17.17;;;16.20;99.90;;;;;;4947209;29;20200;-71
2021/08/21 11:06:04;;;;;;;25.93;14.97;;;16.20;99.90;;;;;;4948967;29;20262;-65
2021/08/21 11:08:52;;;;;;;21.70;14.50;;;16.10;99.90;;;;;;4954551;29;20544;-65
2021/08/21 11:11:27;;;;;;;27.13;16.63;;;16.10;99.90;;;;;;4954636;28;20179;-65
2021/08/21 11:14:23;;;;;;;30.43;17.27;;;15.90;99.90;;;;;;4949926;28;20190;-65
2021/08/21 11:17:01;;;;;;;26.53;16.47;;;15.80;99.90;;;;;;4952421;28;20674;-65
2021/08/21 11:19:35;;;;;;;24.73;15.50;;;15.80;99.90;;;;;;4930990;28;20239;-65
2021/08/21 11:22:25;;;;;;;25.83;16.23;;;15.70;99.90;;;;;;4951434;28;20312;-69
2021/08/21 11:24:59;;;;;;;23.73;15.70;;;15.70;99.90;;;;;;4952441;29;20185;-74
2021/08/21 11:27:29;;;;;;;29.10;17.07;;;15.70;99.90;;;;;;4941399;28;20222;-69
2021/08/21 11:30:21;;;;;;;29.13;19.77;;;15.80;99.90;;;;;;4940444;28;20216;-74
2021/08/21 11:32:52;;;;;;;47.63;29.33;;;15.70;99.90;;;;;;4941344;29;20243;-65
2021/08/21 11:35:21;;;;;;;56.67;34.67;;;15.70;99.90;;;;;;4952763;29;20216;-75
2021/08/21 11:38:00;;;;;;;58.37;37.90;;;15.70;99.90;;;;;;4953717;28;20199;-65
2021/08/21 11:40:38;;;;;;;61.10;39.70;;;15.80;99.90;;;;;;4943411;29;20200;-76
2021/08/21 11:43:09;;;;;;;56.17;35.90;;;15.70;99.90;;;;;;4953463;28;20218;-66
2021/08/21 11:45:37;;;;;;;53.13;30.53;;;15.80;99.90;;;;;;4946766;28;20204;-64
2021/08/21 11:48:05;;;;;;;45.43;28.20;;;15.70;99.90;;;;;;4948810;29;20230;-64
2021/08/21 11:50:43;;;;;;;43.13;24.10;;;15.70;99.90;;;;;;4945168;28;20180;-64
2021/08/21 11:53:13;;;;;;;32.00;20.90;;;15.60;99.90;;;;;;4948734;28;20175;-64
2021/08/21 11:55:41;;;;;;;31.23;19.33;;;15.60;99.90;;;;;;4946189;28;20729;-66
2021/08/21 11:58:10;;;;;;;37.73;20.73;;;15.60;99.90;;;;;;4949492;29;20207;-64
2021/08/21 12:00:40;;;;;;;35.03;22.43;;;15.60;99.90;;;;;;4949044;29;20202;-66
2021/08/21 12:03:10;;;;;;;44.63;26.93;;;15.50;99.90;;;;;;4954124;29;20186;-64
2021/08/21 12:05:42;;;;;;;41.13;25.57;;;15.30;99.90;;;;;;4953794;29;20191;-65
2021/08/21 12:08:23;;;;;;;43.83;27.10;;;15.20;99.90;;;;;;4952570;29;20657;-64
2021/08/21 12:10:52;;;;;;;48.53;30.67;;;15.20;99.90;;;;;;4943911;29;20430;-69
2021/08/21 12:13:30;;;;;;;54.33;32.70;;;15.30;99.90;;;;;;4952305;29;20180;-71
2021/08/21 12:16:05;;;;;;;68.03;40.20;;;15.20;99.90;;;;;;4954659;28;20213;-74
2021/08/21 12:18:34;;;;;;;85.97;51.00;;;15.20;99.90;;;;;;4956546;28;20662;-65
2021/08/21 12:21:03;;;;;;;58.80;38.03;;;15.20;99.90;;;;;;4959405;28;20697;-66
2021/08/21 12:23:31;;;;;;;53.27;34.90;;;15.20;99.90;;;;;;4977177;28;20175;-73
2021/08/21 12:26:00;;;;;;;78.53;50.53;;;15.10;99.90;;;;;;4975533;28;20190;-69
2021/08/21 12:28:35;;;;;;;75.80;49.33;;;15.10;99.90;;;;;;4962701;28;20179;-71
2021/08/21 12:31:05;;;;;;;98.20;59.97;;;15.10;99.90;;;;;;4977067;28;20653;-65
2021/08/21 12:33:46;;;;;;;107.00;64.87;;;15.10;99.90;;;;;;4976086;28;20203;-71
2021/08/21 12:36:21;;;;;;;112.17;73.00;;;15.00;99.90;;;;;;4960063;28;20175;-67
2021/08/21 12:39:09;;;;;;;122.73;77.80;;;15.00;99.90;;;;;;4957033;28;20376;-70
2021/08/21 12:41:48;;;;;;;116.00;77.10;;;15.10;99.90;;;;;;4955398;28;20207;-75
2021/08/21 12:44:17;;;;;;;139.17;88.93;;;15.00;99.90;;;;;;4963994;28;20215;-70
2021/08/21 12:47:05;;;;;;;145.93;94.23;;;15.00;99.90;;;;;;4974636;28;20218;-68